Time;durP1;ratioP1;P1;durP2;ratioP2;P2;SDS_P1;SDS_P2;PMS_P1;PMS_P2;Temp;Humidity;BMP_temperature;BMP_pressure;BME280_temperature;BME280_humidity;BME280_pressure;Samples;Min_cycle;Max_cycle;Signal;HPM_P1;HPM_P2
2022/05/21 00:01:52;;;;;;;8.07;5.85;;;14.00;99.90;;;;;;5135225;27;20638;-47
2022/05/21 00:04:19;;;;;;;6.75;6.05;;;14.00;99.90;;;;;;5134654;27;20220;-50
2022/05/21 00:06:44;;;;;;;8.35;6.55;;;13.90;99.90;;;;;;5135075;27;20164;-50
2022/05/21 00:09:10;;;;;;;13.43;6.78;;;13.90;99.90;;;;;;5135101;27;20171;-50
2022/05/21 00:11:38;;;;;;;7.43;6.63;;;13.80;99.90;;;;;;5135279;27;20172;-50
2022/05/21 00:14:04;;;;;;;9.18;6.20;;;13.80;99.90;;;;;;5135284;27;20224;-50
2022/05/21 00:16:29;;;;;;;8.57;7.00;;;13.80;99.90;;;;;;5134922;27;20164;-50
2022/05/21 00:18:55;;;;;;;8.00;6.88;;;13.80;99.90;;;;;;5135190;27;20176;-50
2022/05/21 00:21:21;;;;;;;9.90;7.57;;;13.80;99.90;;;;;;5135213;27;20160;-50
2022/05/21 00:23:47;;;;;;;11.18;7.65;;;13.70;99.90;;;;;;5135149;27;20252;-50
2022/05/21 00:26:15;;;;;;;12.10;8.00;;;13.70;99.90;;;;;;5134778;27;20172;-50
2022/05/21 00:28:42;;;;;;;10.77;7.68;;;13.60;99.90;;;;;;5134865;27;20267;-50
2022/05/21 00:31:11;;;;;;;12.85;7.95;;;13.60;99.90;;;;;;5134682;27;20160;-49
2022/05/21 00:33:37;;;;;;;9.77;8.20;;;13.50;99.90;;;;;;5134638;27;20172;-49
2022/05/21 00:36:05;;;;;;;11.80;8.55;;;13.50;99.90;;;;;;5134565;27;20160;-50
2022/05/21 00:38:30;;;;;;;12.45;8.30;;;13.50;99.90;;;;;;5134549;27;20223;-49
2022/05/21 00:40:56;;;;;;;12.55;8.93;;;13.50;99.90;;;;;;5134484;27;20164;-49
2022/05/21 00:43:37;;;;;;;11.55;8.95;;;13.50;99.90;;;;;;5115947;27;20172;-47
2022/05/21 00:46:05;;;;;;;11.73;8.38;;;13.50;99.90;;;;;;5134335;27;20172;-50
2022/05/21 00:48:33;;;;;;;12.07;8.90;;;13.50;99.90;;;;;;5133661;27;20160;-48
2022/05/21 00:51:00;;;;;;;14.73;8.73;;;13.50;99.90;;;;;;5134512;27;20245;-48
2022/05/21 00:53:27;;;;;;;12.57;8.63;;;13.50;99.90;;;;;;5134267;27;20160;-48
2022/05/21 00:55:52;;;;;;;11.35;8.35;;;13.50;99.90;;;;;;5134567;27;20534;-46
2022/05/21 01:01:07;;;;;;;13.50;8.57;;;13.40;99.90;;;;;;5134127;27;20167;-47
2022/05/21 01:03:33;;;;;;;18.45;8.57;;;13.40;99.90;;;;;;5133708;27;20214;-47
2022/05/21 01:06:03;;;;;;;11.63;8.23;;;13.40;99.90;;;;;;5133988;27;20529;-48
2022/05/21 01:08:29;;;;;;;12.50;8.75;;;13.30;99.90;;;;;;5133780;27;20541;-47
2022/05/21 01:11:00;;;;;;;11.15;8.10;;;13.30;99.90;;;;;;5134210;27;20585;-48
2022/05/21 01:13:32;;;;;;;14.05;8.32;;;13.30;99.90;;;;;;5133785;27;20716;-47
2022/05/21 01:15:59;;;;;;;10.60;8.23;;;13.30;99.90;;;;;;5134080;27;20588;-47
2022/05/21 01:18:25;;;;;;;14.23;7.78;;;13.20;99.90;;;;;;5133785;27;20243;-46
2022/05/21 01:20:56;;;;;;;14.73;8.15;;;13.20;99.90;;;;;;5134052;27;20602;-48
2022/05/21 01:23:22;;;;;;;14.30;8.43;;;13.20;99.90;;;;;;5134003;27;20565;-48
2022/05/21 01:25:49;;;;;;;13.43;8.23;;;13.20;99.90;;;;;;5134140;27;20184;-49
2022/05/21 01:28:18;;;;;;;10.52;8.30;;;13.20;99.90;;;;;;5133542;27;20160;-48
2022/05/21 01:30:52;;;;;;;13.43;7.68;;;13.20;99.90;;;;;;5133476;27;20168;-48
2022/05/21 01:33:22;;;;;;;13.65;7.43;;;13.10;99.90;;;;;;5115294;27;20174;-48
2022/05/21 01:35:48;;;;;;;16.20;6.78;;;13.10;99.90;;;;;;5133734;27;20174;-47
2022/05/21 01:38:16;;;;;;;10.32;6.97;;;13.10;99.90;;;;;;5133405;27;20578;-48
2022/05/21 01:40:42;;;;;;;12.93;6.43;;;13.00;99.90;;;;;;5133376;27;20200;-47
2022/05/21 01:45:52;;;;;;;9.07;6.68;;;13.00;99.90;;;;;;5133353;27;20228;-47
2022/05/21 01:48:24;;;;;;;12.55;6.25;;;13.00;99.90;;;;;;5133359;27;20176;-48
2022/05/21 01:50:51;;;;;;;7.15;5.63;;;13.00;99.90;;;;;;5133528;27;20168;-48
2022/05/21 01:53:18;;;;;;;12.30;5.85;;;13.00;99.90;;;;;;5133202;27;20168;-47
2022/05/21 01:55:44;;;;;;;10.40;5.40;;;12.90;99.90;;;;;;5133449;27;20175;-48
2022/05/21 01:58:10;;;;;;;7.35;4.90;;;12.90;99.90;;;;;;5133403;27;20167;-47
2022/05/21 02:00:36;;;;;;;9.63;5.60;;;13.00;99.90;;;;;;5132708;27;20271;-46
2022/05/21 02:03:02;;;;;;;6.57;4.85;;;13.00;99.90;;;;;;5132812;27;20244;-49
2022/05/21 02:05:28;;;;;;;8.32;5.15;;;13.00;99.90;;;;;;5132819;28;20211;-48
2022/05/21 02:07:53;;;;;;;9.23;4.57;;;12.90;99.90;;;;;;5132994;28;20540;-47
2022/05/21 02:10:19;;;;;;;6.80;5.07;;;13.00;99.90;;;;;;5133023;28;20172;-50
2022/05/21 02:12:44;;;;;;;11.02;5.30;;;13.00;99.90;;;;;;5132976;28;20156;-50
2022/05/21 02:15:10;;;;;;;9.27;4.22;;;13.10;99.90;;;;;;5133059;28;20168;-48
2022/05/21 02:17:36;;;;;;;8.30;4.25;;;13.10;99.90;;;;;;5132991;28;20168;-48
2022/05/21 02:20:03;;;;;;;7.57;3.70;;;13.10;99.90;;;;;;5132756;28;20156;-49
2022/05/21 02:22:29;;;;;;;7.28;3.58;;;13.10;99.90;;;;;;5132860;28;20201;-49
2022/05/21 02:24:54;;;;;;;5.90;3.72;;;13.10;99.90;;;;;;5132764;28;20207;-50
2022/05/21 02:27:20;;;;;;;6.30;3.05;;;13.10;99.90;;;;;;5133074;28;20164;-48
2022/05/21 02:29:45;;;;;;;6.97;3.75;;;13.00;99.90;;;;;;5133182;28;20183;-47
2022/05/21 02:32:12;;;;;;;6.32;3.38;;;13.00;99.90;;;;;;5132750;28;20160;-48
2022/05/21 02:34:39;;;;;;;7.70;3.55;;;12.90;99.90;;;;;;5132545;28;20183;-48
2022/05/21 02:39:50;;;;;;;6.45;3.00;;;12.90;99.90;;;;;;5132995;28;20265;-49
2022/05/21 02:45:00;;;;;;;6.25;2.80;;;12.90;99.90;;;;;;5132613;28;20214;-47
2022/05/21 02:47:26;;;;;;;7.57;3.83;;;12.90;99.90;;;;;;5132553;28;20160;-49
2022/05/21 02:49:52;;;;;;;3.63;2.50;;;12.80;99.90;;;;;;5133048;28;20216;-48
2022/05/21 02:52:17;;;;;;;8.50;2.58;;;12.80;99.90;;;;;;5132765;28;20172;-48
2022/05/21 02:54:43;;;;;;;10.45;3.33;;;12.80;99.90;;;;;;5132588;28;20160;-49
2022/05/21 02:57:10;;;;;;;3.53;2.33;;;12.80;99.90;;;;;;5132414;28;20528;-49
2022/05/21 02:59:36;;;;;;;6.18;2.70;;;12.80;99.90;;;;;;5132859;28;20161;-49
2022/05/21 03:02:02;;;;;;;7.63;2.55;;;12.80;99.90;;;;;;5114438;28;20168;-46
2022/05/21 03:04:28;;;;;;;9.38;3.00;;;12.90;99.90;;;;;;5132383;28;20706;-49
2022/05/21 03:06:53;;;;;;;4.80;2.53;;;12.90;99.90;;;;;;5132701;28;20160;-47
2022/05/21 03:12:03;;;;;;;3.88;2.10;;;13.00;99.90;;;;;;5134392;27;20212;-49
2022/05/21 03:14:29;;;;;;;8.43;2.97;;;13.00;99.90;;;;;;5136215;27;20168;-48
2022/05/21 03:16:59;;;;;;;11.18;2.30;;;13.10;99.90;;;;;;5135910;27;20187;-48
2022/05/21 03:19:26;;;;;;;5.03;2.28;;;13.00;99.90;;;;;;5136261;27;20172;-48
2022/05/21 03:21:51;;;;;;;8.43;2.42;;;13.10;99.90;;;;;;5136450;27;20156;-49
2022/05/21 03:24:17;;;;;;;10.35;2.97;;;13.10;99.90;;;;;;5136263;27;20199;-50
2022/05/21 03:26:42;;;;;;;5.93;2.10;;;13.10;99.90;;;;;;5135996;27;20174;-50
2022/05/21 03:29:08;;;;;;;3.92;2.10;;;13.20;99.90;;;;;;5135828;27;20164;-50
2022/05/21 03:31:33;;;;;;;8.30;2.30;;;13.10;99.90;;;;;;5135982;27;20678;-50
2022/05/21 03:33:59;;;;;;;7.57;2.35;;;13.20;99.90;;;;;;5135860;27;20245;-50
2022/05/21 03:36:25;;;;;;;3.13;2.17;;;13.20;99.90;;;;;;5135786;27;20164;-49
2022/05/21 03:38:51;;;;;;;6.85;2.20;;;13.20;99.90;;;;;;5136159;27;20172;-49
2022/05/21 03:41:16;;;;;;;6.65;2.33;;;13.30;99.90;;;;;;5135668;27;20649;-50
2022/05/21 03:43:43;;;;;;;7.25;2.63;;;13.20;99.90;;;;;;5135686;27;20164;-50
2022/05/21 03:46:08;;;;;;;9.27;2.17;;;13.30;99.90;;;;;;5135804;27;20183;-50
2022/05/21 03:48:34;;;;;;;5.20;1.80;;;13.30;99.90;;;;;;5135234;27;20301;-50
2022/05/21 03:50:59;;;;;;;5.32;2.05;;;13.30;99.90;;;;;;5135251;27;20175;-51
2022/05/21 03:53:26;;;;;;;9.88;2.65;;;13.40;99.90;;;;;;5135445;27;20172;-49
2022/05/21 03:55:53;;;;;;;3.38;1.90;;;13.40;99.90;;;;;;5135892;27;20172;-49
2022/05/21 03:58:19;;;;;;;5.28;2.42;;;13.40;99.90;;;;;;5135985;27;20168;-48
2022/05/21 04:00:44;;;;;;;7.60;2.03;;;13.30;99.90;;;;;;5135471;27;20510;-48
2022/05/21 04:03:10;;;;;;;7.18;2.17;;;13.40;99.90;;;;;;5135411;27;20246;-48
2022/05/21 04:05:36;;;;;;;5.55;2.28;;;13.30;99.90;;;;;;5135156;27;20653;-49
2022/05/21 04:08:02;;;;;;;5.60;2.22;;;13.40;99.90;;;;;;5135067;27;20164;-48
2022/05/21 04:10:28;;;;;;;5.88;2.28;;;13.40;99.90;;;;;;5135047;27;20258;-47
2022/05/21 04:12:54;;;;;;;5.32;1.95;;;13.40;99.90;;;;;;5134865;27;20251;-47
2022/05/21 04:15:20;;;;;;;6.75;2.10;;;13.30;99.90;;;;;;5135389;27;20579;-48
2022/05/21 04:17:45;;;;;;;8.35;2.47;;;13.40;99.90;;;;;;5135100;27;20164;-47
2022/05/21 04:20:13;;;;;;;9.35;2.13;;;13.40;99.90;;;;;;5134957;27;20221;-47
2022/05/21 04:22:39;;;;;;;7.65;1.90;;;13.40;99.90;;;;;;5134849;27;20156;-47
2022/05/21 04:25:06;;;;;;;7.68;2.22;;;13.40;99.90;;;;;;5134806;27;20204;-47
2022/05/21 04:27:34;;;;;;;5.85;2.17;;;13.40;99.90;;;;;;5134818;27;20160;-47
2022/05/21 04:30:00;;;;;;;4.75;2.05;;;13.40;99.90;;;;;;5134955;27;20172;-48
2022/05/21 04:32:26;;;;;;;7.22;2.35;;;13.50;99.90;;;;;;5134670;27;20156;-46
2022/05/21 04:34:51;;;;;;;4.97;2.08;;;13.50;99.90;;;;;;5134942;27;20183;-47
2022/05/21 04:37:19;;;;;;;11.82;2.63;;;13.50;99.90;;;;;;5116256;27;20175;-47
2022/05/21 04:39:45;;;;;;;5.72;2.20;;;13.50;99.90;;;;;;5134760;27;20168;-48
2022/05/21 04:42:10;;;;;;;6.53;2.30;;;13.50;99.90;;;;;;5134457;27;20152;-49
2022/05/21 04:44:37;;;;;;;5.28;2.10;;;13.50;99.90;;;;;;5134454;27;20200;-47
2022/05/21 04:47:03;;;;;;;14.13;3.58;;;13.60;99.90;;;;;;5134695;27;20183;-48
2022/05/21 04:49:30;;;;;;;5.43;1.90;;;13.60;99.90;;;;;;5134375;27;20538;-48
2022/05/21 04:51:56;;;;;;;8.05;2.00;;;13.60;99.90;;;;;;5134216;27;20631;-46
2022/05/21 04:54:21;;;;;;;7.28;2.97;;;13.60;99.90;;;;;;5134399;27;20168;-46
2022/05/21 04:56:47;;;;;;;5.93;2.20;;;13.60;99.90;;;;;;5134192;27;20168;-48
2022/05/21 04:59:13;;;;;;;6.68;2.33;;;13.70;99.90;;;;;;5134354;27;20229;-46
2022/05/21 05:01:40;;;;;;;6.25;2.15;;;13.70;99.90;;;;;;5134314;27;20172;-47
2022/05/21 05:04:07;;;;;;;10.90;2.47;;;13.70;99.90;;;;;;5133760;27;20223;-49
2022/05/21 05:06:33;;;;;;;7.07;2.60;;;13.70;99.90;;;;;;5134347;27;20201;-48
2022/05/21 05:08:59;;;;;;;7.35;2.45;;;13.60;99.90;;;;;;5133955;27;20168;-48
2022/05/21 05:11:24;;;;;;;12.60;2.85;;;13.60;99.90;;;;;;5133888;27;20172;-50
2022/05/21 05:13:50;;;;;;;4.72;2.20;;;13.70;99.90;;;;;;5134312;27;20198;-53
2022/05/21 05:16:16;;;;;;;8.00;2.72;;;13.70;99.90;;;;;;5133808;27;20604;-45
2022/05/21 05:18:41;;;;;;;9.10;2.70;;;13.70;99.90;;;;;;5133624;27;20575;-47
2022/05/21 05:21:07;;;;;;;4.03;2.40;;;13.80;99.90;;;;;;5133743;27;20187;-46
2022/05/21 05:23:32;;;;;;;6.18;2.42;;;13.80;99.90;;;;;;5133557;27;20295;-46
2022/05/21 05:25:59;;;;;;;9.98;3.00;;;13.90;99.90;;;;;;5133703;27;20199;-47
2022/05/21 05:28:27;;;;;;;6.07;2.70;;;13.90;99.90;;;;;;5133833;27;20168;-46
2022/05/21 05:30:53;;;;;;;8.25;2.50;;;13.90;99.90;;;;;;5133786;27;20534;-50
2022/05/21 05:33:19;;;;;;;8.88;2.63;;;13.80;99.90;;;;;;5134080;27;20172;-50
2022/05/21 05:35:48;;;;;;;6.47;2.70;;;13.90;99.90;;;;;;5133113;27;20511;-51
2022/05/21 05:38:15;;;;;;;9.10;2.60;;;14.00;99.90;;;;;;5133716;27;20176;-49
2022/05/21 05:40:45;;;;;;;13.15;4.47;;;14.00;99.90;;;;;;5133613;27;20188;-50
2022/05/21 05:43:11;;;;;;;10.88;3.53;;;14.00;99.90;;;;;;5133636;27;20168;-50
2022/05/21 05:45:37;;;;;;;5.45;2.78;;;13.90;99.90;;;;;;5133227;27;20233;-50
2022/05/21 05:48:02;;;;;;;9.38;2.90;;;13.90;99.90;;;;;;5133287;27;20160;-50
2022/05/21 05:50:28;;;;;;;8.23;2.85;;;14.00;99.90;;;;;;5133233;27;20178;-46
2022/05/21 05:52:54;;;;;;;5.43;2.28;;;14.00;99.90;;;;;;5133477;27;20571;-46
2022/05/21 05:55:20;;;;;;;7.90;2.85;;;13.90;99.90;;;;;;5133445;27;20216;-46
2022/05/21 05:57:52;;;;;;;6.85;2.35;;;14.00;99.90;;;;;;5133435;27;20164;-50
2022/05/21 06:00:19;;;;;;;7.93;3.33;;;14.00;99.90;;;;;;5133708;27;20225;-47
2022/05/21 06:03:01;;;;;;;13.90;3.53;;;14.00;99.90;;;;;;5133099;27;20156;-46
2022/05/21 06:05:30;;;;;;;11.88;3.30;;;13.90;99.90;;;;;;5132810;27;20578;-47
2022/05/21 06:08:02;;;;;;;7.32;3.38;;;14.00;99.90;;;;;;5132898;28;20204;-50
2022/05/21 06:10:35;;;;;;;9.90;3.28;;;14.00;99.90;;;;;;5132967;28;20172;-51
2022/05/21 06:13:01;;;;;;;8.20;3.15;;;14.00;99.90;;;;;;5133277;28;20193;-49
2022/05/21 06:15:27;;;;;;;7.40;3.03;;;14.00;99.90;;;;;;5132953;28;20168;-51
2022/05/21 06:17:53;;;;;;;9.80;3.28;;;14.00;99.90;;;;;;5114610;28;20281;-48
2022/05/21 06:20:23;;;;;;;16.35;4.13;;;14.00;99.90;;;;;;5133679;28;20198;-48
2022/05/21 06:22:49;;;;;;;9.93;3.92;;;14.00;99.90;;;;;;5133230;28;20163;-49
2022/05/21 06:25:19;;;;;;;10.55;3.22;;;14.00;99.90;;;;;;5133095;28;20235;-50
2022/05/21 06:27:47;;;;;;;9.32;3.58;;;14.00;99.90;;;;;;5132950;28;20156;-51
2022/05/21 06:30:14;;;;;;;9.15;4.13;;;14.10;99.90;;;;;;5132698;28;20236;-50
2022/05/21 06:32:40;;;;;;;8.57;3.38;;;14.20;99.90;;;;;;5131996;28;20175;-50
2022/05/21 06:35:06;;;;;;;7.35;3.25;;;14.30;99.90;;;;;;5132868;28;20164;-50
2022/05/21 06:37:32;;;;;;;10.20;4.05;;;14.40;99.90;;;;;;5132731;28;20165;-50
2022/05/21 06:39:58;;;;;;;8.65;3.30;;;14.60;99.90;;;;;;5132894;28;20179;-49
2022/05/21 06:42:23;;;;;;;10.63;3.80;;;14.70;99.90;;;;;;5132588;28;20163;-49
2022/05/21 06:44:50;;;;;;;7.32;3.45;;;14.80;99.90;;;;;;5114401;28;20235;-49
2022/05/21 06:47:16;;;;;;;8.32;2.95;;;14.80;99.90;;;;;;5134886;27;20160;-51
2022/05/21 06:49:42;;;;;;;10.80;3.95;;;14.60;99.90;;;;;;5136882;27;21127;-50
2022/05/21 06:52:07;;;;;;;10.80;4.35;;;14.70;99.90;;;;;;5136508;27;20176;-50
2022/05/21 06:54:33;;;;;;;10.77;3.83;;;14.80;99.90;;;;;;5136461;27;20243;-49
2022/05/21 06:56:58;;;;;;;12.05;4.07;;;14.80;99.90;;;;;;5136556;27;20174;-50
2022/05/21 06:59:24;;;;;;;14.77;4.55;;;14.70;99.90;;;;;;5136400;27;20168;-50
2022/05/21 07:01:49;;;;;;;7.75;3.45;;;14.60;99.90;;;;;;5136696;27;20176;-47
2022/05/21 07:04:15;;;;;;;6.57;3.25;;;14.60;99.90;;;;;;5136233;27;20572;-47
2022/05/21 07:09:27;;;;;;;13.23;4.40;;;14.50;99.90;;;;;;5136322;27;20583;-49
2022/05/21 07:11:53;;;;;;;11.02;4.00;;;14.60;99.90;;;;;;5136155;27;20205;-45
2022/05/21 07:14:20;;;;;;;8.13;3.58;;;14.70;99.90;;;;;;5136496;27;20165;-51
2022/05/21 07:16:45;;;;;;;11.50;3.83;;;14.60;99.90;;;;;;5136384;27;20172;-50
2022/05/21 07:19:11;;;;;;;11.18;4.00;;;14.60;99.90;;;;;;5136053;27;20175;-51
2022/05/21 07:21:37;;;;;;;10.05;4.07;;;14.60;99.90;;;;;;5117727;27;20259;-47
2022/05/21 07:24:04;;;;;;;11.18;3.45;;;14.80;99.90;;;;;;5136029;27;20738;-47
2022/05/21 07:26:30;;;;;;;10.93;4.28;;;15.00;99.90;;;;;;5135889;27;20582;-50
2022/05/21 07:28:58;;;;;;;11.15;4.22;;;15.10;99.90;;;;;;5135830;27;20160;-46
2022/05/21 07:31:24;;;;;;;11.13;3.78;;;15.10;99.90;;;;;;5135888;27;20168;-46
2022/05/21 07:33:50;;;;;;;12.45;4.03;;;15.00;99.90;;;;;;5136313;27;20168;-46
2022/05/21 07:36:16;;;;;;;7.10;3.38;;;15.20;99.90;;;;;;5135765;27;20160;-47
2022/05/21 07:38:41;;;;;;;6.03;3.70;;;15.20;99.90;;;;;;5135802;27;20159;-47
2022/05/21 07:41:07;;;;;;;10.02;3.40;;;15.10;99.90;;;;;;5135710;27;20164;-47
2022/05/21 07:43:33;;;;;;;8.38;3.58;;;15.10;99.90;;;;;;5135578;27;20192;-45
2022/05/21 07:46:00;;;;;;;10.68;3.22;;;15.20;99.90;;;;;;5135773;27;20246;-45
2022/05/21 07:48:26;;;;;;;11.20;3.28;;;15.30;99.90;;;;;;5135468;27;20168;-47
2022/05/21 07:50:55;;;;;;;10.00;4.13;;;15.40;99.90;;;;;;5135792;27;20172;-45
2022/05/21 07:53:29;;;;;;;8.88;3.30;;;15.50;99.90;;;;;;5135669;27;20156;-45
2022/05/21 07:55:55;;;;;;;10.50;3.75;;;15.70;99.90;;;;;;5135584;27;20164;-46
2022/05/21 07:58:23;;;;;;;8.02;3.28;;;15.60;99.90;;;;;;5135602;27;20176;-47
2022/05/21 08:00:50;;;;;;;9.55;3.50;;;15.40;99.90;;;;;;5135662;27;20175;-44
2022/05/21 08:03:15;;;;;;;8.57;3.50;;;15.60;99.90;;;;;;5135102;27;20698;-45
2022/05/21 08:05:42;;;;;;;10.23;3.10;;;16.10;99.90;;;;;;5135076;27;20290;-46
2022/05/21 08:08:08;;;;;;;12.18;3.35;;;16.30;99.90;;;;;;5135389;27;20174;-45
2022/05/21 08:10:36;;;;;;;10.45;3.35;;;16.60;99.90;;;;;;5135106;27;20164;-45
2022/05/21 08:13:02;;;;;;;15.90;3.90;;;16.60;99.90;;;;;;5135062;27;20196;-45
2022/05/21 08:15:29;;;;;;;13.20;3.70;;;16.80;99.90;;;;;;5135241;27;20383;-46
2022/05/21 08:17:55;;;;;;;7.72;3.00;;;17.20;99.90;;;;;;5134986;27;20160;-45
2022/05/21 08:20:21;;;;;;;9.15;3.53;;;17.30;99.90;;;;;;5135432;27;20194;-45
2022/05/21 08:28:16;;;;;;;6.68;3.17;;;17.20;99.90;;;;;;5134991;27;20216;-50
2022/05/21 08:30:44;;;;;;;14.40;3.17;;;17.20;99.90;;;;;;5134687;27;20168;-47
2022/05/21 08:33:10;;;;;;;8.93;3.33;;;16.90;99.90;;;;;;5134625;27;20168;-46
2022/05/21 08:35:40;;;;;;;8.73;3.03;;;16.90;99.90;;;;;;5134625;27;20261;-47
2022/05/21 08:38:07;;;;;;;10.65;3.30;;;17.10;99.90;;;;;;5134507;27;20239;-47
2022/05/21 08:40:44;;;;;;;8.68;3.25;;;17.60;99.90;;;;;;5134484;27;20156;-46
2022/05/21 08:43:20;;;;;;;7.32;3.03;;;17.70;99.90;;;;;;5134451;27;20152;-46
2022/05/21 08:46:15;;;;;;;9.32;4.03;;;17.70;99.90;;;;;;5134306;27;20259;-47
2022/05/21 08:48:49;;;;;;;7.72;3.67;;;18.00;99.90;;;;;;5134622;27;20176;-46
2022/05/21 08:51:19;;;;;;;12.65;4.25;;;18.10;99.90;;;;;;5134382;27;20258;-47
2022/05/21 08:53:49;;;;;;;6.35;2.83;;;18.00;99.90;;;;;;5134194;27;20160;-46
2022/05/21 08:56:16;;;;;;;7.15;3.30;;;17.50;99.90;;;;;;5134438;27;20194;-51
2022/05/21 08:58:55;;;;;;;8.27;3.30;;;17.40;99.90;;;;;;5134083;27;20284;-50
2022/05/21 09:01:24;;;;;;;6.28;3.00;;;17.60;99.90;;;;;;5134405;27;20172;-49
2022/05/21 09:03:52;;;;;;;12.82;3.00;;;17.60;99.90;;;;;;5134270;27;20207;-50
2022/05/21 09:06:17;;;;;;;8.55;2.65;;;17.40;99.90;;;;;;5134550;27;20172;-48
2022/05/21 09:08:55;;;;;;;12.57;3.20;;;17.40;99.90;;;;;;5133431;27;20178;-49
2022/05/21 09:11:57;;;;;;;8.63;2.90;;;17.40;99.90;;;;;;5134056;27;20171;-46
2022/05/21 09:14:41;;;;;;;6.32;2.70;;;17.60;99.90;;;;;;5133857;27;20163;-45
2022/05/21 09:17:15;;;;;;;10.23;3.50;;;17.40;99.90;;;;;;5133744;27;20642;-46
2022/05/21 09:19:55;;;;;;;12.48;3.75;;;17.30;99.90;;;;;;5133741;27;20186;-47
2022/05/21 09:22:21;;;;;;;9.93;3.67;;;17.80;99.90;;;;;;5133841;27;20167;-45
2022/05/21 09:25:01;;;;;;;5.78;2.78;;;18.10;99.90;;;;;;5133839;27;20256;-47
2022/05/21 09:27:31;;;;;;;6.60;2.67;;;18.20;99.90;;;;;;5133941;27;20198;-46
2022/05/21 09:30:32;;;;;;;9.45;3.47;;;17.80;99.90;;;;;;5133845;27;20172;-50
2022/05/21 09:33:00;;;;;;;7.13;3.00;;;18.00;99.90;;;;;;5115083;27;20587;-49
2022/05/21 09:35:31;;;;;;;7.32;3.25;;;18.60;99.90;;;;;;5133730;27;20255;-50
2022/05/21 09:38:12;;;;;;;7.75;3.35;;;18.80;99.90;;;;;;5133721;27;20160;-50
2022/05/21 09:40:39;;;;;;;6.95;3.00;;;18.90;99.90;;;;;;5133266;27;20615;-49
2022/05/21 09:46:20;;;;;;;9.50;3.10;;;19.20;99.90;;;;;;5133301;27;20749;-50
2022/05/21 09:48:48;;;;;;;10.55;3.25;;;19.50;99.90;;;;;;5133621;27;20622;-46
2022/05/21 09:51:29;;;;;;;8.57;2.92;;;19.20;99.90;;;;;;5133497;27;20171;-46
2022/05/21 09:53:55;;;;;;;6.97;2.97;;;19.20;99.90;;;;;;5133146;27;20164;-46
2022/05/21 09:56:27;;;;;;;11.30;3.13;;;18.90;99.90;;;;;;5133639;27;20178;-46
2022/05/21 09:59:13;;;;;;;7.18;2.83;;;18.90;99.90;;;;;;5133405;27;20169;-45
2022/05/21 10:01:41;;;;;;;8.45;2.97;;;19.30;99.90;;;;;;5133101;27;20690;-46
2022/05/21 10:04:39;;;;;;;9.27;2.80;;;19.10;99.90;;;;;;5132824;27;20709;-47
2022/05/21 10:13:10;;;;;;;7.85;3.10;;;18.60;99.90;;;;;;5133065;28;20174;-47
2022/05/21 10:16:18;;;;;;;9.40;3.47;;;18.50;99.90;;;;;;5132956;28;20247;-46
2022/05/21 10:18:52;;;;;;;6.82;2.95;;;18.90;99.90;;;;;;5132763;28;20179;-45
2022/05/21 10:21:35;;;;;;;8.20;3.08;;;19.40;99.90;;;;;;5135823;27;20175;-46
2022/05/21 10:24:19;;;;;;;10.20;3.35;;;19.90;99.90;;;;;;5137127;27;20155;-46
2022/05/21 10:26:58;;;;;;;6.28;3.17;;;20.00;99.90;;;;;;5137080;27;20213;-50
2022/05/21 10:29:56;;;;;;;7.85;3.58;;;19.60;99.90;;;;;;5118657;27;20270;-45
2022/05/21 10:32:55;;;;;;;9.55;3.55;;;19.40;99.90;;;;;;5137185;27;20515;-46
2022/05/21 10:35:40;;;;;;;6.57;3.30;;;19.60;99.90;;;;;;5137333;27;20651;-46
2022/05/21 10:38:20;;;;;;;8.65;3.20;;;19.40;99.90;;;;;;5136727;27;20171;-47
2022/05/21 10:40:58;;;;;;;8.75;3.30;;;19.00;99.90;;;;;;5136859;27;20167;-45
2022/05/21 10:43:30;;;;;;;8.65;3.33;;;19.00;99.90;;;;;;5137052;27;20214;-47
2022/05/21 10:46:19;;;;;;;15.55;3.28;;;19.30;99.90;;;;;;5136796;27;20738;-45
2022/05/21 10:49:05;;;;;;;7.43;3.47;;;19.30;99.90;;;;;;5137048;27;20178;-47
2022/05/21 10:51:44;;;;;;;7.07;2.83;;;19.70;99.90;;;;;;5136599;27;20216;-47
2022/05/21 10:54:09;;;;;;;6.82;3.35;;;19.10;99.90;;;;;;5136572;27;20171;-47
2022/05/21 10:57:10;;;;;;;9.27;3.63;;;19.40;99.90;;;;;;5136619;27;20164;-46
2022/05/21 10:59:49;;;;;;;7.32;3.08;;;19.40;99.90;;;;;;5088708;27;20183;-47
2022/05/21 11:02:40;;;;;;;8.35;3.10;;;19.40;99.90;;;;;;5136379;27;20226;-47
2022/05/21 11:05:43;;;;;;;9.07;3.25;;;19.50;99.90;;;;;;5136230;27;20222;-47
2022/05/21 11:08:30;;;;;;;7.63;3.45;;;19.70;99.90;;;;;;5136257;27;20532;-44
2022/05/21 11:11:09;;;;;;;7.53;3.33;;;19.80;99.90;;;;;;5136194;27;20171;-46
2022/05/21 11:13:55;;;;;;;6.95;3.22;;;19.90;99.90;;;;;;5136219;27;20167;-47
2022/05/21 11:16:29;;;;;;;9.07;3.10;;;20.40;99.90;;;;;;5136915;27;20236;-46
2022/05/21 11:19:00;;;;;;;9.90;5.05;;;20.90;99.90;;;;;;5136374;27;20175;-48
2022/05/21 11:21:53;;;;;;;7.65;3.35;;;20.90;99.90;;;;;;5136406;27;20168;-47
2022/05/21 11:24:41;;;;;;;4.18;2.58;;;20.70;99.90;;;;;;5136286;27;20232;-50
2022/05/21 11:27:34;;;;;;;12.80;4.03;;;20.20;99.90;;;;;;5135817;27;20173;-48
2022/05/21 11:30:10;;;;;;;7.15;2.72;;;20.00;99.90;;;;;;5136010;27;20191;-49
2022/05/21 11:38:23;;;;;;;6.03;2.40;;;19.80;99.90;;;;;;5136055;27;20168;-45
2022/05/21 11:46:47;;;;;;;7.90;2.60;;;20.10;99.90;;;;;;5135575;27;20646;-44
2022/05/21 11:49:32;;;;;;;4.82;2.30;;;20.00;99.90;;;;;;5135551;27;20160;-45
2022/05/21 11:52:00;;;;;;;7.88;2.78;;;20.40;99.90;;;;;;5135591;27;20638;-45
2022/05/21 11:54:45;;;;;;;6.20;2.40;;;20.80;99.90;;;;;;5135426;27;20225;-45
2022/05/21 11:57:11;;;;;;;12.90;3.22;;;20.60;99.90;;;;;;5135417;27;20164;-46
2022/05/21 11:59:51;;;;;;;7.25;2.20;;;20.60;99.90;;;;;;5135601;27;20176;-47
2022/05/21 12:02:28;;;;;;;5.88;2.40;;;20.80;99.90;;;;;;5135487;27;20175;-45
2022/05/21 12:05:00;;;;;;;4.85;2.38;;;21.10;99.90;;;;;;5135118;27;20360;-46
2022/05/21 12:07:40;;;;;;;5.18;2.60;;;21.30;99.90;;;;;;5135170;27;20160;-47
2022/05/21 12:10:18;;;;;;;5.72;2.72;;;20.90;99.90;;;;;;5116646;27;20171;-46
2022/05/21 12:13:12;;;;;;;6.05;2.58;;;21.30;99.90;;;;;;5135000;27;20626;-46
2022/05/21 12:15:43;;;;;;;14.48;3.00;;;21.40;99.90;;;;;;5134998;27;20711;-46
2022/05/21 12:18:31;;;;;;;9.23;2.58;;;21.10;99.90;;;;;;5134230;27;20156;-46
2022/05/21 12:20:57;;;;;;;10.05;3.03;;;21.00;99.90;;;;;;5134723;27;20634;-46
2022/05/21 12:23:32;;;;;;;9.98;3.17;;;21.10;99.90;;;;;;5134908;27;20160;-45
2022/05/21 12:26:17;;;;;;;10.52;2.92;;;21.20;99.90;;;;;;5134647;27;20210;-46
2022/05/21 12:28:49;;;;;;;9.95;2.70;;;21.20;99.90;;;;;;5134355;27;20209;-46
2022/05/21 12:31:28;;;;;;;9.15;3.45;;;21.30;99.90;;;;;;5134101;27;20160;-44
2022/05/21 12:34:14;;;;;;;7.63;2.50;;;21.60;99.90;;;;;;5134348;27;20163;-44
2022/05/21 12:37:07;;;;;;;11.10;2.92;;;21.60;99.90;;;;;;5134453;27;20160;-44
2022/05/21 12:39:48;;;;;;;5.32;2.72;;;21.90;99.90;;;;;;5116062;27;20641;-43
2022/05/21 12:42:46;;;;;;;13.82;2.92;;;21.90;99.90;;;;;;5134146;27;20522;-44
2022/05/21 12:45:31;;;;;;;5.90;2.28;;;22.50;99.90;;;;;;5132908;27;20191;-44
2022/05/21 12:48:31;;;;;;;5.88;2.60;;;22.60;99.90;;;;;;5133720;27;20156;-48
2022/05/21 12:51:03;;;;;;;5.80;2.55;;;22.60;99.90;;;;;;5115602;27;20183;-49
2022/05/21 12:53:47;;;;;;;6.75;2.42;;;22.20;99.90;;;;;;5134022;27;20179;-49
2022/05/21 12:56:16;;;;;;;6.25;2.72;;;21.80;99.90;;;;;;5134230;27;20561;-49
2022/05/21 12:58:41;;;;;;;4.97;2.63;;;22.10;99.90;;;;;;5134291;27;20590;-46
2022/05/21 13:01:07;;;;;;;4.18;2.00;;;22.10;99.90;;;;;;5134024;27;20164;-45
2022/05/21 13:03:35;;;;;;;4.40;2.30;;;21.90;99.90;;;;;;5133897;27;20608;-46
2022/05/21 13:06:07;;;;;;;5.95;2.25;;;21.80;99.90;;;;;;5133838;27;20207;-46
2022/05/21 13:08:36;;;;;;;6.57;2.78;;;22.20;99.90;;;;;;5134207;27;20175;-47
2022/05/21 13:11:22;;;;;;;7.03;2.40;;;22.30;99.90;;;;;;5133841;27;20172;-48
2022/05/21 13:14:10;;;;;;;5.80;3.03;;;22.60;99.90;;;;;;5134194;27;20160;-46
2022/05/21 13:16:49;;;;;;;7.22;2.95;;;23.00;99.90;;;;;;5133850;27;20160;-46
2022/05/21 13:19:43;;;;;;;7.55;2.88;;;22.20;99.90;;;;;;5133757;27;20172;-47
2022/05/21 13:22:15;;;;;;;5.22;2.25;;;22.40;99.90;;;;;;5133942;27;20224;-48
2022/05/21 13:25:12;;;;;;;5.82;2.67;;;22.30;99.90;;;;;;5133706;27;20195;-47
2022/05/21 13:27:49;;;;;;;8.68;2.78;;;21.90;99.90;;;;;;5113587;27;20180;-46
2022/05/21 13:30:19;;;;;;;9.55;2.78;;;21.70;99.90;;;;;;5133429;27;20530;-47
2022/05/21 13:32:52;;;;;;;5.88;2.55;;;22.00;99.90;;;;;;5132667;27;20160;-48
2022/05/21 13:35:22;;;;;;;7.40;2.88;;;22.40;99.90;;;;;;5133699;27;20191;-47
2022/05/21 13:37:50;;;;;;;6.55;2.70;;;22.50;99.90;;;;;;5133609;27;20168;-48
2022/05/21 13:40:27;;;;;;;7.82;2.70;;;22.60;99.90;;;;;;5133435;27;20172;-49
2022/05/21 13:43:05;;;;;;;6.35;2.72;;;22.50;99.90;;;;;;5133211;27;20220;-46
2022/05/21 13:45:37;;;;;;;9.45;2.65;;;22.50;99.90;;;;;;5133181;27;20202;-47